메인 페이지
METAR-TAF:

METAR-TAF

공항 :

데라둔, 인도

위도: 30-11-23N, 경도: 78-10-49E, 고도: 558m

METAR: 누락

시각: 05:42 (00:12 UTC)

예보

예보는 1 시간 12분 전, 23:00시(UTC)에 발표되었습니다.
예보 대상 시간: 01일 00시부터 01일 09시까지 (UTC)
kt
시정: 2000m
고도 10000ft 상공 구름 조금
박무
전환 중
01일 02시부터 01일 04시까지 (UTC)
남남서3kt
시정: 5000m
고도 10000ft 상공 구름 보통
연무

TAF: VIDN 302300Z 0100/0109 00000KT 2000 BR FEW100 BECMG 0102/0104 21003KT 5000 HZ SCT100

4,000개 이상의 공항 관측 자료 및 예보 (METAR 및 TAF 보고).

지도상에서 검색 가능한 기상관측소가 노란 점과 빨간 점으로 표시되어 있습니다.

기상관측소 명을 보려면 표시 위로 마우스를 이동하세요.

날씨 관측과 예보를 보려면 클릭하세요.

지도 변경 : 확대하려면 엑스 표시가 있는 녹색 버튼, 축소하려면 빼기 표시가 있는 녹색 버튼, 다음 페이지의 지도를 보려면 녹색 화살표를 클릭하세요.


METAR-TAF: